YMMLNFFN

Guest
Details From YMML - Melbourne Intl
To NFFN - Nadi Intl
Flight Number -
Tags Generated
Created
Modified
Stats Distance 2,088 nm / 3,867 km
Max Altitude 0 ft / 0 m
Waypoints 4
Social Downloads 1
Likes 0
Share VATSIM

Download

Looking for another format? Having issues loading an existing format? Contact us
Advertisement - Login to hide

Notes

Generated

Route

YMML COMND VK NFFN

ID Type Via Altitude Latitude Longitude Leg Dist Tot Dist Heading (true) Name
O YMML APT - 0 ft / 0 m -37.66220˚ 144.84819˚ - 0 nm - -
COMND FIX - 0 ft / 0 m -36.02658˚ 149.01239˚ 222 nm 222 nm 65° / 63° -
VK NDB - 0 ft / 0 m -17.78472˚ 177.41944˚ 1862 nm 2085 nm 62° / 48° NAVAKAI NDB
O NFFN APT - 0 ft / 0 m -17.75352˚ 177.43591˚ 2 nm 2087 nm 27° / 27° -

Altitude Profile

Advertisement - Login to hide

Weather


0- 5 10 15 20 25 30 35+ Temperature / ° C

Clouds and Precipitation
Forecast for 2018-05-23 12:00 UTC. Updated 2 hours ago

Ground ~20,000 ft ~40,000 ft Winds

YMML

Details ICAO YMML (MEL)
Name Melbourne Intl
Region Australia
Timezone Australia/Melbourne (UTC+10.0)
Stats Elevation 433 ft / 132 m (AMSL)
Location -37.665301° 144.836668°
Runways 2
Magnetic Variation 11.508° E

METAR

YMML 231030Z 24006KT 9999 BKN035 12/08 Q1027 NOSIG

Decode

TAF

TAF YMML 230510Z 2306/2412 25012KT 9999 -SHRA BKN035 FM231000 24010KT 9999 FEW012 BKN035 FM240100 20010KT 9999 BKN035

Decode

Departure Runways

ID Width Length Bearing (true) Bearing (mag) Surface Threshold Offset Overrun Length
09 148 ft / 45 m 7,494 ft / 2,284 m 94.01° 82.50° Asphalt 0 ft / 0 m 0 ft / 0 m
16 148 ft / 45 m 12,008 ft / 3,660 m 171.02° 159.51° Asphalt 98 ft / 30 m 0 ft / 0 m
27 148 ft / 45 m 7,494 ft / 2,284 m 274.00° 262.49° Asphalt 0 ft / 0 m 0 ft / 0 m
34 148 ft / 45 m 12,008 ft / 3,660 m 351.01° 339.50° Asphalt 98 ft / 30 m 0 ft / 0 m

NFFN

Details ICAO NFFN (NAN)
Name Nadi Intl
Region Fiji and Tonga
Timezone Pacific/Fiji (UTC+12.0)
Stats Elevation 59 ft / 18 m (AMSL)
Location -17.758366° 177.442147°
Runways 2
Magnetic Variation 12.418° E

METAR

NFFN 231000Z 04005KT 9999 SCT025 24/23 Q1013 NOSIG

Decode

TAF

TAF NFFN 230508Z 2306/2406 08005KT 9999 BKN023 BKN048 BECMG 2321/2323 26010KT PROB30 TEMPO 2401/2406 5000 SHRA BKN017 BECMG 2404/2406 08005KT

Decode

Destination Runways

ID Width Length Bearing (true) Bearing (mag) Surface Threshold Offset Overrun Length
02 151 ft / 46 m 10,529 ft / 3,209 m 37.50° 25.08° Asphalt 0 ft / 0 m 0 ft / 0 m
09 151 ft / 46 m 6,989 ft / 2,130 m 104.20° 91.78° Asphalt 0 ft / 0 m 95 ft / 29 m
20 151 ft / 46 m 10,529 ft / 3,209 m 217.50° 205.08° Asphalt 0 ft / 0 m 0 ft / 0 m
27 151 ft / 46 m 6,989 ft / 2,130 m 284.20° 271.78° Asphalt 0 ft / 0 m 0 ft / 0 m

Approach Navaids

Runway Type Ident Frequency Range Bearing (true) Bearing (mag) Slope Elevation
02 Localiser INN 109.90 MHz 18 nm / 33 km 37.49° 25.07° - 41 ft / 12 m (AMSL)
02 Glidescope INN 109.90 MHz 10 nm / 19 km 37.50° 25.08° 3.00° 59 ft / 18 m (AMSL)

Popular Alternatives